sensor_id;sensor_type;location;lat;lon;timestamp;P1;durP1;ratioP1;P2;durP2;ratioP2
13439;SDS011;6792;57.698;11.946;2023-01-23T00:00:29;3.27;;;2.93;;
13439;SDS011;6792;57.698;11.946;2023-01-23T00:03:00;4.67;;;3.13;;
13439;SDS011;6792;57.698;11.946;2023-01-23T00:05:30;4.83;;;3.20;;
13439;SDS011;6792;57.698;11.946;2023-01-23T00:07:59;4.57;;;2.80;;
13439;SDS011;6792;57.698;11.946;2023-01-23T00:10:28;4.57;;;3.53;;
13439;SDS011;6792;57.698;11.946;2023-01-23T00:12:57;5.37;;;3.63;;
13439;SDS011;6792;57.698;11.946;2023-01-23T00:15:26;5.43;;;3.10;;
13439;SDS011;6792;57.698;11.946;2023-01-23T00:17:55;5.33;;;3.47;;
13439;SDS011;6792;57.698;11.946;2023-01-23T00:20:27;4.27;;;3.20;;
13439;SDS011;6792;57.698;11.946;2023-01-23T00:22:56;5.50;;;3.20;;
13439;SDS011;6792;57.698;11.946;2023-01-23T00:25:25;4.63;;;3.40;;
13439;SDS011;6792;57.698;11.946;2023-01-23T00:27:54;5.03;;;3.67;;
13439;SDS011;6792;57.698;11.946;2023-01-23T00:30:23;5.67;;;3.60;;
13439;SDS011;6792;57.698;11.946;2023-01-23T00:32:52;5.53;;;3.57;;
13439;SDS011;6792;57.698;11.946;2023-01-23T00:35:21;5.47;;;3.50;;
13439;SDS011;6792;57.698;11.946;2023-01-23T00:37:50;6.73;;;3.50;;
13439;SDS011;6792;57.698;11.946;2023-01-23T00:40:19;6.33;;;3.60;;
13439;SDS011;6792;57.698;11.946;2023-01-23T00:42:48;4.70;;;3.43;;
13439;SDS011;6792;57.698;11.946;2023-01-23T00:45:17;5.63;;;3.90;;
13439;SDS011;6792;57.698;11.946;2023-01-23T00:47:47;6.63;;;3.97;;
13439;SDS011;6792;57.698;11.946;2023-01-23T00:50:16;6.00;;;3.97;;
13439;SDS011;6792;57.698;11.946;2023-01-23T00:52:45;6.20;;;3.63;;
13439;SDS011;6792;57.698;11.946;2023-01-23T00:55:14;6.23;;;3.43;;
13439;SDS011;6792;57.698;11.946;2023-01-23T00:57:43;5.80;;;3.90;;
13439;SDS011;6792;57.698;11.946;2023-01-23T01:00:13;6.53;;;3.87;;
13439;SDS011;6792;57.698;11.946;2023-01-23T01:02:43;7.60;;;4.53;;
13439;SDS011;6792;57.698;11.946;2023-01-23T01:05:12;6.83;;;4.00;;
13439;SDS011;6792;57.698;11.946;2023-01-23T01:07:43;6.30;;;3.73;;
13439;SDS011;6792;57.698;11.946;2023-01-23T01:10:13;5.47;;;3.50;;
13439;SDS011;6792;57.698;11.946;2023-01-23T01:12:42;7.53;;;3.90;;
13439;SDS011;6792;57.698;11.946;2023-01-23T01:15:13;4.70;;;3.37;;
13439;SDS011;6792;57.698;11.946;2023-01-23T01:17:42;5.43;;;3.47;;
13439;SDS011;6792;57.698;11.946;2023-01-23T01:20:12;5.90;;;3.77;;
13439;SDS011;6792;57.698;11.946;2023-01-23T01:22:41;5.50;;;3.40;;
13439;SDS011;6792;57.698;11.946;2023-01-23T01:25:11;4.93;;;3.60;;
13439;SDS011;6792;57.698;11.946;2023-01-23T01:27:40;5.90;;;3.70;;
13439;SDS011;6792;57.698;11.946;2023-01-23T01:30:10;5.60;;;3.53;;
13439;SDS011;6792;57.698;11.946;2023-01-23T01:32:40;4.67;;;3.27;;
13439;SDS011;6792;57.698;11.946;2023-01-23T01:35:10;5.47;;;3.50;;
13439;SDS011;6792;57.698;11.946;2023-01-23T01:37:39;6.73;;;3.70;;
13439;SDS011;6792;57.698;11.946;2023-01-23T01:40:11;6.00;;;3.90;;
13439;SDS011;6792;57.698;11.946;2023-01-23T01:42:42;5.17;;;3.60;;
13439;SDS011;6792;57.698;11.946;2023-01-23T01:48:17;5.53;;;3.13;;
13439;SDS011;6792;57.698;11.946;2023-01-23T01:50:49;4.60;;;3.20;;
13439;SDS011;6792;57.698;11.946;2023-01-23T01:53:18;4.30;;;3.30;;
13439;SDS011;6792;57.698;11.946;2023-01-23T01:55:49;3.87;;;2.77;;
13439;SDS011;6792;57.698;11.946;2023-01-23T01:58:19;6.73;;;3.17;;
13439;SDS011;6792;57.698;11.946;2023-01-23T02:00:48;4.60;;;3.17;;
13439;SDS011;6792;57.698;11.946;2023-01-23T02:03:17;4.47;;;3.30;;
13439;SDS011;6792;57.698;11.946;2023-01-23T02:05:47;4.83;;;3.30;;
13439;SDS011;6792;57.698;11.946;2023-01-23T02:08:18;4.77;;;3.23;;
13439;SDS011;6792;57.698;11.946;2023-01-23T02:10:50;5.17;;;2.87;;
13439;SDS011;6792;57.698;11.946;2023-01-23T02:13:24;6.00;;;3.70;;
13439;SDS011;6792;57.698;11.946;2023-01-23T02:16:00;4.70;;;3.03;;
13439;SDS011;6792;57.698;11.946;2023-01-23T02:18:31;3.70;;;3.03;;
13439;SDS011;6792;57.698;11.946;2023-01-23T02:21:04;7.67;;;3.77;;
13439;SDS011;6792;57.698;11.946;2023-01-23T02:23:36;4.00;;;3.23;;
13439;SDS011;6792;57.698;11.946;2023-01-23T02:26:12;5.03;;;3.13;;
13439;SDS011;6792;57.698;11.946;2023-01-23T02:28:43;5.23;;;3.50;;
13439;SDS011;6792;57.698;11.946;2023-01-23T02:31:14;6.27;;;3.57;;
13439;SDS011;6792;57.698;11.946;2023-01-23T02:33:45;4.70;;;3.80;;
13439;SDS011;6792;57.698;11.946;2023-01-23T02:36:16;4.90;;;3.40;;
13439;SDS011;6792;57.698;11.946;2023-01-23T02:38:50;4.87;;;3.47;;
13439;SDS011;6792;57.698;11.946;2023-01-23T02:41:23;4.97;;;3.30;;
13439;SDS011;6792;57.698;11.946;2023-01-23T02:43:56;4.83;;;3.27;;
13439;SDS011;6792;57.698;11.946;2023-01-23T02:46:28;6.43;;;4.30;;
13439;SDS011;6792;57.698;11.946;2023-01-23T02:48:57;7.53;;;4.90;;
13439;SDS011;6792;57.698;11.946;2023-01-23T02:51:26;8.60;;;4.97;;
13439;SDS011;6792;57.698;11.946;2023-01-23T02:53:55;8.97;;;4.80;;
13439;SDS011;6792;57.698;11.946;2023-01-23T02:56:24;7.47;;;4.80;;
13439;SDS011;6792;57.698;11.946;2023-01-23T02:58:53;7.73;;;4.47;;
13439;SDS011;6792;57.698;11.946;2023-01-23T03:01:40;8.10;;;4.83;;
13439;SDS011;6792;57.698;11.946;2023-01-23T03:04:09;8.73;;;4.87;;
13439;SDS011;6792;57.698;11.946;2023-01-23T03:06:38;9.63;;;4.83;;
13439;SDS011;6792;57.698;11.946;2023-01-23T03:09:08;8.20;;;4.93;;
13439;SDS011;6792;57.698;11.946;2023-01-23T03:11:39;8.70;;;4.57;;
13439;SDS011;6792;57.698;11.946;2023-01-23T03:14:09;6.53;;;4.57;;
13439;SDS011;6792;57.698;11.946;2023-01-23T03:16:40;8.87;;;5.10;;
13439;SDS011;6792;57.698;11.946;2023-01-23T03:19:10;6.10;;;4.17;;
13439;SDS011;6792;57.698;11.946;2023-01-23T03:21:39;7.27;;;4.70;;
13439;SDS011;6792;57.698;11.946;2023-01-23T03:24:09;9.13;;;5.10;;
13439;SDS011;6792;57.698;11.946;2023-01-23T03:26:40;8.27;;;4.70;;
13439;SDS011;6792;57.698;11.946;2023-01-23T03:29:11;7.13;;;5.10;;
13439;SDS011;6792;57.698;11.946;2023-01-23T03:32:01;8.23;;;5.50;;
13439;SDS011;6792;57.698;11.946;2023-01-23T03:34:30;11.63;;;5.07;;
13439;SDS011;6792;57.698;11.946;2023-01-23T03:37:00;7.30;;;5.23;;
13439;SDS011;6792;57.698;11.946;2023-01-23T03:39:29;8.43;;;5.20;;
13439;SDS011;6792;57.698;11.946;2023-01-23T03:42:16;8.77;;;5.63;;
13439;SDS011;6792;57.698;11.946;2023-01-23T03:44:45;9.30;;;5.37;;
13439;SDS011;6792;57.698;11.946;2023-01-23T03:47:14;7.90;;;4.93;;
13439;SDS011;6792;57.698;11.946;2023-01-23T03:49:43;8.73;;;5.93;;
13439;SDS011;6792;57.698;11.946;2023-01-23T03:52:12;8.23;;;4.90;;
13439;SDS011;6792;57.698;11.946;2023-01-23T03:54:41;7.47;;;5.00;;
13439;SDS011;6792;57.698;11.946;2023-01-23T03:57:12;7.73;;;4.97;;
13439;SDS011;6792;57.698;11.946;2023-01-23T03:59:41;9.40;;;5.07;;
13439;SDS011;6792;57.698;11.946;2023-01-23T04:02:10;7.47;;;4.67;;
13439;SDS011;6792;57.698;11.946;2023-01-23T04:04:39;8.83;;;5.13;;
13439;SDS011;6792;57.698;11.946;2023-01-23T04:07:09;6.27;;;4.53;;
13439;SDS011;6792;57.698;11.946;2023-01-23T04:09:38;7.40;;;4.80;;
13439;SDS011;6792;57.698;11.946;2023-01-23T04:12:07;8.67;;;5.17;;
13439;SDS011;6792;57.698;11.946;2023-01-23T04:14:36;8.17;;;4.70;;
13439;SDS011;6792;57.698;11.946;2023-01-23T04:17:06;7.30;;;5.20;;
13439;SDS011;6792;57.698;11.946;2023-01-23T04:19:35;7.17;;;5.03;;
13439;SDS011;6792;57.698;11.946;2023-01-23T04:22:04;9.87;;;5.70;;
13439;SDS011;6792;57.698;11.946;2023-01-23T04:24:35;6.43;;;4.70;;
13439;SDS011;6792;57.698;11.946;2023-01-23T04:27:04;8.70;;;4.63;;
13439;SDS011;6792;57.698;11.946;2023-01-23T04:29:33;9.13;;;5.30;;
13439;SDS011;6792;57.698;11.946;2023-01-23T04:32:03;7.43;;;5.20;;
13439;SDS011;6792;57.698;11.946;2023-01-23T04:34:34;5.63;;;4.27;;
13439;SDS011;6792;57.698;11.946;2023-01-23T04:37:03;5.67;;;4.50;;
13439;SDS011;6792;57.698;11.946;2023-01-23T04:39:32;7.93;;;4.87;;
13439;SDS011;6792;57.698;11.946;2023-01-23T04:42:01;7.40;;;4.90;;
13439;SDS011;6792;57.698;11.946;2023-01-23T04:44:30;8.37;;;4.70;;
13439;SDS011;6792;57.698;11.946;2023-01-23T04:46:59;10.63;;;4.73;;
13439;SDS011;6792;57.698;11.946;2023-01-23T04:49:28;8.37;;;4.93;;
13439;SDS011;6792;57.698;11.946;2023-01-23T04:51:58;7.67;;;4.63;;
13439;SDS011;6792;57.698;11.946;2023-01-23T04:54:27;7.00;;;4.50;;
13439;SDS011;6792;57.698;11.946;2023-01-23T04:56:56;10.83;;;4.73;;
13439;SDS011;6792;57.698;11.946;2023-01-23T04:59:25;9.00;;;4.90;;
13439;SDS011;6792;57.698;11.946;2023-01-23T05:01:54;6.63;;;4.57;;
13439;SDS011;6792;57.698;11.946;2023-01-23T05:04:23;7.57;;;4.40;;
13439;SDS011;6792;57.698;11.946;2023-01-23T05:06:52;8.87;;;4.47;;
13439;SDS011;6792;57.698;11.946;2023-01-23T05:09:21;7.90;;;4.73;;
13439;SDS011;6792;57.698;11.946;2023-01-23T05:11:50;7.67;;;4.70;;
13439;SDS011;6792;57.698;11.946;2023-01-23T05:14:19;7.63;;;4.70;;
13439;SDS011;6792;57.698;11.946;2023-01-23T05:16:50;7.43;;;4.50;;
13439;SDS011;6792;57.698;11.946;2023-01-23T05:19:19;6.70;;;4.60;;
13439;SDS011;6792;57.698;11.946;2023-01-23T05:21:48;9.97;;;4.60;;
13439;SDS011;6792;57.698;11.946;2023-01-23T05:24:17;5.87;;;4.17;;
13439;SDS011;6792;57.698;11.946;2023-01-23T05:26:46;6.43;;;4.00;;
13439;SDS011;6792;57.698;11.946;2023-01-23T05:29:15;4.60;;;3.00;;
13439;SDS011;6792;57.698;11.946;2023-01-23T05:31:44;3.93;;;2.70;;
13439;SDS011;6792;57.698;11.946;2023-01-23T05:34:13;4.27;;;3.00;;
13439;SDS011;6792;57.698;11.946;2023-01-23T05:36:45;3.73;;;2.90;;
13439;SDS011;6792;57.698;11.946;2023-01-23T05:39:14;5.13;;;2.87;;
13439;SDS011;6792;57.698;11.946;2023-01-23T05:41:43;4.23;;;2.67;;
13439;SDS011;6792;57.698;11.946;2023-01-23T05:44:12;3.63;;;2.70;;
13439;SDS011;6792;57.698;11.946;2023-01-23T05:46:41;3.07;;;2.57;;
13439;SDS011;6792;57.698;11.946;2023-01-23T05:49:10;3.10;;;2.80;;
13439;SDS011;6792;57.698;11.946;2023-01-23T05:51:39;3.40;;;2.90;;
13439;SDS011;6792;57.698;11.946;2023-01-23T05:54:08;4.53;;;3.00;;
13439;SDS011;6792;57.698;11.946;2023-01-23T05:56:37;3.80;;;2.73;;
13439;SDS011;6792;57.698;11.946;2023-01-23T05:59:06;3.80;;;2.67;;
13439;SDS011;6792;57.698;11.946;2023-01-23T06:01:36;3.40;;;2.90;;
13439;SDS011;6792;57.698;11.946;2023-01-23T06:04:05;4.07;;;2.77;;
13439;SDS011;6792;57.698;11.946;2023-01-23T06:06:38;3.80;;;2.83;;
13439;SDS011;6792;57.698;11.946;2023-01-23T06:09:08;2.80;;;2.40;;
13439;SDS011;6792;57.698;11.946;2023-01-23T06:11:37;3.73;;;3.00;;
13439;SDS011;6792;57.698;11.946;2023-01-23T06:14:06;5.00;;;2.80;;
13439;SDS011;6792;57.698;11.946;2023-01-23T06:16:35;7.37;;;2.80;;
13439;SDS011;6792;57.698;11.946;2023-01-23T06:19:04;3.93;;;2.83;;
13439;SDS011;6792;57.698;11.946;2023-01-23T06:21:33;6.10;;;3.00;;
13439;SDS011;6792;57.698;11.946;2023-01-23T06:24:02;3.80;;;3.10;;
13439;SDS011;6792;57.698;11.946;2023-01-23T06:26:32;2.37;;;2.00;;
13439;SDS011;6792;57.698;11.946;2023-01-23T06:29:01;4.03;;;2.50;;
13439;SDS011;6792;57.698;11.946;2023-01-23T06:31:30;3.70;;;3.03;;
13439;SDS011;6792;57.698;11.946;2023-01-23T06:33:59;3.80;;;2.73;;
13439;SDS011;6792;57.698;11.946;2023-01-23T06:36:29;3.47;;;2.77;;
13439;SDS011;6792;57.698;11.946;2023-01-23T06:38:59;2.70;;;2.33;;
13439;SDS011;6792;57.698;11.946;2023-01-23T06:41:28;3.67;;;2.33;;
13439;SDS011;6792;57.698;11.946;2023-01-23T06:43:57;2.70;;;2.00;;
13439;SDS011;6792;57.698;11.946;2023-01-23T06:46:26;2.33;;;2.13;;
13439;SDS011;6792;57.698;11.946;2023-01-23T06:48:55;2.27;;;2.07;;
13439;SDS011;6792;57.698;11.946;2023-01-23T06:51:24;2.07;;;1.70;;
13439;SDS011;6792;57.698;11.946;2023-01-23T06:53:53;1.90;;;1.80;;
13439;SDS011;6792;57.698;11.946;2023-01-23T06:56:22;2.03;;;1.53;;
13439;SDS011;6792;57.698;11.946;2023-01-23T06:58:52;2.03;;;1.67;;
13439;SDS011;6792;57.698;11.946;2023-01-23T07:01:21;1.80;;;1.70;;
13439;SDS011;6792;57.698;11.946;2023-01-23T07:03:51;2.10;;;1.57;;
13439;SDS011;6792;57.698;11.946;2023-01-23T07:06:20;3.27;;;2.30;;
13439;SDS011;6792;57.698;11.946;2023-01-23T07:08:49;2.27;;;2.03;;
13439;SDS011;6792;57.698;11.946;2023-01-23T07:11:18;1.67;;;1.57;;
13439;SDS011;6792;57.698;11.946;2023-01-23T07:13:50;1.93;;;1.83;;
13439;SDS011;6792;57.698;11.946;2023-01-23T07:16:21;2.60;;;2.00;;
13439;SDS011;6792;57.698;11.946;2023-01-23T07:18:50;2.03;;;1.80;;
13439;SDS011;6792;57.698;11.946;2023-01-23T07:21:19;2.40;;;2.00;;
13439;SDS011;6792;57.698;11.946;2023-01-23T07:23:48;2.37;;;1.80;;
13439;SDS011;6792;57.698;11.946;2023-01-23T07:26:17;2.13;;;1.93;;
13439;SDS011;6792;57.698;11.946;2023-01-23T07:28:47;2.23;;;1.80;;
13439;SDS011;6792;57.698;11.946;2023-01-23T07:31:16;1.50;;;1.40;;
13439;SDS011;6792;57.698;11.946;2023-01-23T07:33:45;2.10;;;1.53;;
13439;SDS011;6792;57.698;11.946;2023-01-23T07:36:14;3.23;;;1.70;;
13439;SDS011;6792;57.698;11.946;2023-01-23T07:38:44;3.97;;;1.60;;
13439;SDS011;6792;57.698;11.946;2023-01-23T07:41:13;1.73;;;1.30;;
13439;SDS011;6792;57.698;11.946;2023-01-23T07:43:42;1.57;;;1.47;;
13439;SDS011;6792;57.698;11.946;2023-01-23T07:46:11;2.87;;;1.63;;
13439;SDS011;6792;57.698;11.946;2023-01-23T07:48:40;1.50;;;1.40;;
13439;SDS011;6792;57.698;11.946;2023-01-23T07:51:09;1.60;;;1.50;;
13439;SDS011;6792;57.698;11.946;2023-01-23T07:53:40;3.33;;;1.30;;
13439;SDS011;6792;57.698;11.946;2023-01-23T07:56:09;1.80;;;1.53;;
13439;SDS011;6792;57.698;11.946;2023-01-23T07:58:39;1.60;;;1.50;;
13439;SDS011;6792;57.698;11.946;2023-01-23T08:01:09;1.90;;;1.70;;
13439;SDS011;6792;57.698;11.946;2023-01-23T08:03:36;1.73;;;1.60;;
13439;SDS011;6792;57.698;11.946;2023-01-23T08:06:06;2.73;;;1.73;;
13439;SDS011;6792;57.698;11.946;2023-01-23T08:08:36;2.03;;;1.63;;
13439;SDS011;6792;57.698;11.946;2023-01-23T08:11:06;1.60;;;1.40;;
13439;SDS011;6792;57.698;11.946;2023-01-23T08:13:37;1.93;;;1.57;;
13439;SDS011;6792;57.698;11.946;2023-01-23T08:16:09;6.53;;;1.97;;
13439;SDS011;6792;57.698;11.946;2023-01-23T08:18:40;2.10;;;1.80;;
13439;SDS011;6792;57.698;11.946;2023-01-23T08:21:09;1.67;;;1.50;;
13439;SDS011;6792;57.698;11.946;2023-01-23T08:23:38;2.20;;;1.80;;
13439;SDS011;6792;57.698;11.946;2023-01-23T08:26:08;2.23;;;1.70;;
13439;SDS011;6792;57.698;11.946;2023-01-23T08:28:39;1.47;;;1.37;;
13439;SDS011;6792;57.698;11.946;2023-01-23T08:31:09;2.10;;;1.60;;
13439;SDS011;6792;57.698;11.946;2023-01-23T08:33:39;1.30;;;1.20;;
13439;SDS011;6792;57.698;11.946;2023-01-23T08:36:11;1.60;;;1.50;;
13439;SDS011;6792;57.698;11.946;2023-01-23T08:38:40;3.10;;;1.50;;
13439;SDS011;6792;57.698;11.946;2023-01-23T08:41:11;3.97;;;1.53;;
13439;SDS011;6792;57.698;11.946;2023-01-23T08:43:40;2.30;;;1.37;;
13439;SDS011;6792;57.698;11.946;2023-01-23T08:46:10;1.40;;;1.30;;
13439;SDS011;6792;57.698;11.946;2023-01-23T08:48:42;1.67;;;1.57;;
13439;SDS011;6792;57.698;11.946;2023-01-23T08:51:11;2.10;;;1.37;;
13439;SDS011;6792;57.698;11.946;2023-01-23T08:53:41;2.23;;;1.53;;
13439;SDS011;6792;57.698;11.946;2023-01-23T08:56:12;1.53;;;1.40;;
13439;SDS011;6792;57.698;11.946;2023-01-23T09:01:20;3.10;;;1.50;;
13439;SDS011;6792;57.698;11.946;2023-01-23T09:03:51;3.33;;;1.63;;
13439;SDS011;6792;57.698;11.946;2023-01-23T09:06:22;1.47;;;1.37;;
13439;SDS011;6792;57.698;11.946;2023-01-23T09:08:51;1.50;;;1.27;;
13439;SDS011;6792;57.698;11.946;2023-01-23T09:11:20;1.70;;;1.60;;
13439;SDS011;6792;57.698;11.946;2023-01-23T09:13:49;6.83;;;1.80;;
13439;SDS011;6792;57.698;11.946;2023-01-23T09:16:18;2.43;;;1.47;;
13439;SDS011;6792;57.698;11.946;2023-01-23T09:18:47;3.33;;;1.57;;
13439;SDS011;6792;57.698;11.946;2023-01-23T09:21:16;2.33;;;1.70;;
13439;SDS011;6792;57.698;11.946;2023-01-23T09:23:45;1.13;;;1.03;;
13439;SDS011;6792;57.698;11.946;2023-01-23T09:26:14;3.40;;;1.50;;
13439;SDS011;6792;57.698;11.946;2023-01-23T09:28:43;1.40;;;1.23;;
13439;SDS011;6792;57.698;11.946;2023-01-23T09:31:13;1.60;;;1.50;;
13439;SDS011;6792;57.698;11.946;2023-01-23T09:33:42;1.50;;;1.40;;
13439;SDS011;6792;57.698;11.946;2023-01-23T09:36:12;1.50;;;1.40;;
13439;SDS011;6792;57.698;11.946;2023-01-23T09:38:41;4.27;;;1.90;;
13439;SDS011;6792;57.698;11.946;2023-01-23T09:41:13;1.90;;;1.20;;
13439;SDS011;6792;57.698;11.946;2023-01-23T09:43:50;1.83;;;1.20;;
13439;SDS011;6792;57.698;11.946;2023-01-23T09:46:23;2.10;;;1.30;;
13439;SDS011;6792;57.698;11.946;2023-01-23T09:48:56;1.90;;;1.63;;
13439;SDS011;6792;57.698;11.946;2023-01-23T09:51:29;2.37;;;1.50;;
13439;SDS011;6792;57.698;11.946;2023-01-23T09:54:06;1.40;;;1.30;;
13439;SDS011;6792;57.698;11.946;2023-01-23T09:56:37;1.40;;;1.30;;
13439;SDS011;6792;57.698;11.946;2023-01-23T09:59:23;2.43;;;1.30;;
13439;SDS011;6792;57.698;11.946;2023-01-23T10:01:57;1.30;;;1.20;;
13439;SDS011;6792;57.698;11.946;2023-01-23T10:04:26;1.40;;;1.30;;
13439;SDS011;6792;57.698;11.946;2023-01-23T10:07:10;1.33;;;1.23;;
13439;SDS011;6792;57.698;11.946;2023-01-23T10:09:50;1.43;;;1.20;;
13439;SDS011;6792;57.698;11.946;2023-01-23T10:12:31;2.67;;;1.43;;
13439;SDS011;6792;57.698;11.946;2023-01-23T10:15:23;1.17;;;1.10;;
13439;SDS011;6792;57.698;11.946;2023-01-23T10:17:58;1.40;;;1.30;;
13439;SDS011;6792;57.698;11.946;2023-01-23T10:20:40;2.23;;;1.60;;
13439;SDS011;6792;57.698;11.946;2023-01-23T10:26:28;1.40;;;1.10;;
13439;SDS011;6792;57.698;11.946;2023-01-23T10:28:57;2.43;;;1.20;;
13439;SDS011;6792;57.698;11.946;2023-01-23T10:31:32;1.40;;;1.30;;
13439;SDS011;6792;57.698;11.946;2023-01-23T10:34:10;1.87;;;1.30;;
13439;SDS011;6792;57.698;11.946;2023-01-23T10:36:44;1.50;;;1.03;;
13439;SDS011;6792;57.698;11.946;2023-01-23T10:39:16;1.93;;;1.43;;
13439;SDS011;6792;57.698;11.946;2023-01-23T10:41:54;1.10;;;1.00;;
13439;SDS011;6792;57.698;11.946;2023-01-23T10:44:23;1.20;;;1.10;;
13439;SDS011;6792;57.698;11.946;2023-01-23T10:46:53;3.07;;;1.47;;
13439;SDS011;6792;57.698;11.946;2023-01-23T10:49:26;5.63;;;1.30;;
13439;SDS011;6792;57.698;11.946;2023-01-23T10:51:58;1.50;;;1.10;;
13439;SDS011;6792;57.698;11.946;2023-01-23T10:54:30;3.10;;;1.43;;
13439;SDS011;6792;57.698;11.946;2023-01-23T10:57:17;1.00;;;0.90;;
13439;SDS011;6792;57.698;11.946;2023-01-23T10:59:49;1.40;;;1.30;;
13439;SDS011;6792;57.698;11.946;2023-01-23T11:02:25;1.60;;;1.50;;
13439;SDS011;6792;57.698;11.946;2023-01-23T11:04:54;1.63;;;1.33;;
13439;SDS011;6792;57.698;11.946;2023-01-23T11:07:25;1.43;;;1.30;;
13439;SDS011;6792;57.698;11.946;2023-01-23T11:09:56;1.97;;;1.17;;
13439;SDS011;6792;57.698;11.946;2023-01-23T11:12:28;1.57;;;1.20;;
13439;SDS011;6792;57.698;11.946;2023-01-23T11:15:15;6.70;;;1.50;;
13439;SDS011;6792;57.698;11.946;2023-01-23T11:17:48;2.63;;;1.30;;
13439;SDS011;6792;57.698;11.946;2023-01-23T11:20:22;1.20;;;1.10;;
13439;SDS011;6792;57.698;11.946;2023-01-23T11:23:00;1.67;;;0.97;;
13439;SDS011;6792;57.698;11.946;2023-01-23T11:25:31;2.63;;;1.53;;
13439;SDS011;6792;57.698;11.946;2023-01-23T11:28:03;1.27;;;1.13;;
13439;SDS011;6792;57.698;11.946;2023-01-23T11:30:46;1.50;;;1.40;;
13439;SDS011;6792;57.698;11.946;2023-01-23T11:33:26;1.03;;;0.93;;
13439;SDS011;6792;57.698;11.946;2023-01-23T11:35:59;1.30;;;1.20;;
13439;SDS011;6792;57.698;11.946;2023-01-23T11:38:35;1.83;;;1.47;;
13439;SDS011;6792;57.698;11.946;2023-01-23T11:41:08;1.17;;;1.00;;
13439;SDS011;6792;57.698;11.946;2023-01-23T11:43:39;2.10;;;1.40;;
13439;SDS011;6792;57.698;11.946;2023-01-23T11:46:12;1.23;;;1.10;;
13439;SDS011;6792;57.698;11.946;2023-01-23T11:49:10;1.70;;;1.27;;
13439;SDS011;6792;57.698;11.946;2023-01-23T11:51:45;1.40;;;1.30;;
13439;SDS011;6792;57.698;11.946;2023-01-23T11:54:23;1.87;;;1.43;;
13439;SDS011;6792;57.698;11.946;2023-01-23T11:57:01;1.93;;;1.73;;
13439;SDS011;6792;57.698;11.946;2023-01-23T11:59:42;6.63;;;1.60;;
13439;SDS011;6792;57.698;11.946;2023-01-23T12:02:26;1.57;;;1.23;;
13439;SDS011;6792;57.698;11.946;2023-01-23T12:05:26;2.80;;;1.53;;
13439;SDS011;6792;57.698;11.946;2023-01-23T12:08:07;4.60;;;1.30;;
13439;SDS011;6792;57.698;11.946;2023-01-23T12:10:43;1.40;;;1.23;;
13439;SDS011;6792;57.698;11.946;2023-01-23T12:13:20;1.80;;;1.27;;
13439;SDS011;6792;57.698;11.946;2023-01-23T12:15:57;1.60;;;1.50;;
13439;SDS011;6792;57.698;11.946;2023-01-23T12:18:32;4.07;;;1.60;;
13439;SDS011;6792;57.698;11.946;2023-01-23T12:21:07;1.73;;;1.63;;
13439;SDS011;6792;57.698;11.946;2023-01-23T12:23:44;2.03;;;1.53;;
13439;SDS011;6792;57.698;11.946;2023-01-23T12:26:32;2.67;;;1.70;;
13439;SDS011;6792;57.698;11.946;2023-01-23T12:29:15;4.00;;;1.57;;
13439;SDS011;6792;57.698;11.946;2023-01-23T12:31:58;2.23;;;1.70;;
13439;SDS011;6792;57.698;11.946;2023-01-23T12:34:35;1.87;;;1.60;;
13439;SDS011;6792;57.698;11.946;2023-01-23T12:37:15;1.60;;;1.50;;
13439;SDS011;6792;57.698;11.946;2023-01-23T12:39:57;3.03;;;1.40;;
13439;SDS011;6792;57.698;11.946;2023-01-23T12:42:33;1.67;;;1.53;;
13439;SDS011;6792;57.698;11.946;2023-01-23T12:45:05;4.47;;;1.70;;
13439;SDS011;6792;57.698;11.946;2023-01-23T12:47:41;2.47;;;1.80;;
13439;SDS011;6792;57.698;11.946;2023-01-23T12:50:15;2.33;;;2.07;;
13439;SDS011;6792;57.698;11.946;2023-01-23T12:52:48;2.83;;;1.90;;
13439;SDS011;6792;57.698;11.946;2023-01-23T12:55:20;2.30;;;2.10;;
13439;SDS011;6792;57.698;11.946;2023-01-23T12:57:54;3.30;;;1.83;;
13439;SDS011;6792;57.698;11.946;2023-01-23T13:00:30;2.23;;;2.03;;
13439;SDS011;6792;57.698;11.946;2023-01-23T13:03:08;2.63;;;1.77;;
13439;SDS011;6792;57.698;11.946;2023-01-23T13:05:50;2.60;;;2.30;;
13439;SDS011;6792;57.698;11.946;2023-01-23T13:08:23;2.40;;;1.50;;
13439;SDS011;6792;57.698;11.946;2023-01-23T13:11:00;5.10;;;1.70;;
13439;SDS011;6792;57.698;11.946;2023-01-23T13:13:50;3.70;;;2.17;;
13439;SDS011;6792;57.698;11.946;2023-01-23T13:16:19;1.90;;;1.80;;
13439;SDS011;6792;57.698;11.946;2023-01-23T13:18:52;4.97;;;2.23;;
13439;SDS011;6792;57.698;11.946;2023-01-23T13:21:40;3.33;;;2.00;;
13439;SDS011;6792;57.698;11.946;2023-01-23T13:24:38;3.43;;;2.07;;
13439;SDS011;6792;57.698;11.946;2023-01-23T13:27:34;7.33;;;2.13;;
13439;SDS011;6792;57.698;11.946;2023-01-23T13:36:27;1.77;;;1.67;;
13439;SDS011;6792;57.698;11.946;2023-01-23T13:39:23;6.03;;;2.10;;
13439;SDS011;6792;57.698;11.946;2023-01-23T13:45:22;2.73;;;2.07;;
13439;SDS011;6792;57.698;11.946;2023-01-23T13:48:18;1.97;;;1.77;;
13439;SDS011;6792;57.698;11.946;2023-01-23T13:51:21;3.00;;;1.63;;
13439;SDS011;6792;57.698;11.946;2023-01-23T13:53:50;1.60;;;1.50;;
13439;SDS011;6792;57.698;11.946;2023-01-23T13:56:39;2.33;;;1.67;;
13439;SDS011;6792;57.698;11.946;2023-01-23T13:59:24;1.83;;;1.70;;
13439;SDS011;6792;57.698;11.946;2023-01-23T14:02:00;3.23;;;1.60;;
13439;SDS011;6792;57.698;11.946;2023-01-23T14:04:55;2.73;;;2.07;;
13439;SDS011;6792;57.698;11.946;2023-01-23T14:07:40;4.07;;;2.30;;
13439;SDS011;6792;57.698;11.946;2023-01-23T14:10:14;3.23;;;2.37;;
13439;SDS011;6792;57.698;11.946;2023-01-23T14:12:47;2.97;;;2.50;;
13439;SDS011;6792;57.698;11.946;2023-01-23T14:15:22;3.80;;;2.40;;
13439;SDS011;6792;57.698;11.946;2023-01-23T14:18:15;2.67;;;2.23;;
13439;SDS011;6792;57.698;11.946;2023-01-23T14:20:47;2.50;;;1.80;;
13439;SDS011;6792;57.698;11.946;2023-01-23T14:23:19;5.83;;;2.67;;
13439;SDS011;6792;57.698;11.946;2023-01-23T14:25:54;5.23;;;2.40;;
13439;SDS011;6792;57.698;11.946;2023-01-23T14:28:24;4.70;;;2.60;;
13439;SDS011;6792;57.698;11.946;2023-01-23T14:30:57;3.63;;;2.50;;
13439;SDS011;6792;57.698;11.946;2023-01-23T14:33:36;2.90;;;2.60;;
13439;SDS011;6792;57.698;11.946;2023-01-23T14:36:13;3.13;;;2.50;;
13439;SDS011;6792;57.698;11.946;2023-01-23T14:38:44;2.37;;;2.17;;
13439;SDS011;6792;57.698;11.946;2023-01-23T14:41:15;2.20;;;1.90;;
13439;SDS011;6792;57.698;11.946;2023-01-23T14:43:47;3.43;;;2.33;;
13439;SDS011;6792;57.698;11.946;2023-01-23T14:46:17;3.83;;;2.03;;
13439;SDS011;6792;57.698;11.946;2023-01-23T14:48:51;2.40;;;2.20;;
13439;SDS011;6792;57.698;11.946;2023-01-23T14:51:24;2.80;;;1.80;;
13439;SDS011;6792;57.698;11.946;2023-01-23T14:53:55;2.43;;;2.00;;
13439;SDS011;6792;57.698;11.946;2023-01-23T14:56:27;2.63;;;2.10;;
13439;SDS011;6792;57.698;11.946;2023-01-23T14:58:59;2.90;;;2.20;;
13439;SDS011;6792;57.698;11.946;2023-01-23T15:01:31;2.40;;;2.07;;
13439;SDS011;6792;57.698;11.946;2023-01-23T15:04:04;4.10;;;2.10;;
13439;SDS011;6792;57.698;11.946;2023-01-23T15:06:37;4.33;;;2.47;;
13439;SDS011;6792;57.698;11.946;2023-01-23T15:09:07;8.47;;;2.67;;
13439;SDS011;6792;57.698;11.946;2023-01-23T15:11:40;4.40;;;2.00;;
13439;SDS011;6792;57.698;11.946;2023-01-23T15:14:21;2.83;;;2.23;;
13439;SDS011;6792;57.698;11.946;2023-01-23T15:16:58;2.60;;;2.27;;
13439;SDS011;6792;57.698;11.946;2023-01-23T15:19:28;3.10;;;2.40;;
13439;SDS011;6792;57.698;11.946;2023-01-23T15:22:06;3.10;;;2.40;;
13439;SDS011;6792;57.698;11.946;2023-01-23T15:24:37;3.13;;;2.63;;
13439;SDS011;6792;57.698;11.946;2023-01-23T15:27:21;4.33;;;2.67;;
13439;SDS011;6792;57.698;11.946;2023-01-23T15:32:58;5.60;;;3.07;;
13439;SDS011;6792;57.698;11.946;2023-01-23T15:35:30;5.40;;;2.80;;
13439;SDS011;6792;57.698;11.946;2023-01-23T15:38:03;3.23;;;2.87;;
13439;SDS011;6792;57.698;11.946;2023-01-23T15:40:33;3.67;;;3.10;;